Terminal Aerodrome Forecast
Issued by NWS Upton, NY

Home | Current Version | Previous Version | Text Only | Print | Product List | Glossary On
Versions: 1 2 3 4 5 6 7 8 9 10 11 12 13 14 15 16 17 18 19 20 21 22 23 24 25 26 27 28 29 30 31
000
FTUS41 KOKX 022100 CCA
TAFLGA
TAF COR
KLGA 022100Z 0221/0318 04010KT 6SM -RA BKN007 OVC010
      TEMPO 0221/0224 3SM RA BR SCT007 BKN010
     FM030300 05008KT 6SM BR SCT007 OVC012
      TEMPO 0303/0307 -RA BKN007
     FM030700 05008KT 6SM BR FEW007 OVC015
     FM031200 05010KT P6SM SCT015 OVC030
     FM031500 06013KT P6SM SCT030 OVC050=

USA.gov is the U.S. government's official web portal to all federal, state and local government web resources and services.